sensor_id;sensor_type;location;lat;lon;timestamp;P1;durP1;ratioP1;P2;durP2;ratioP2
16436;SDS011;8328;52.206;21.006;2023-09-12T00:01:46;22.35;;;16.75;;
16436;SDS011;8328;52.206;21.006;2023-09-12T00:04:12;20.80;;;17.40;;
16436;SDS011;8328;52.206;21.006;2023-09-12T00:06:39;20.63;;;17.50;;
16436;SDS011;8328;52.206;21.006;2023-09-12T00:09:05;21.77;;;17.35;;
16436;SDS011;8328;52.206;21.006;2023-09-12T00:11:31;21.25;;;17.38;;
16436;SDS011;8328;52.206;21.006;2023-09-12T00:13:57;20.63;;;17.02;;
16436;SDS011;8328;52.206;21.006;2023-09-12T00:16:24;20.88;;;16.80;;
16436;SDS011;8328;52.206;21.006;2023-09-12T00:18:50;21.63;;;17.30;;
16436;SDS011;8328;52.206;21.006;2023-09-12T00:21:16;21.48;;;17.20;;
16436;SDS011;8328;52.206;21.006;2023-09-12T00:23:43;18.88;;;16.63;;
16436;SDS011;8328;52.206;21.006;2023-09-12T00:26:09;20.52;;;16.80;;
16436;SDS011;8328;52.206;21.006;2023-09-12T00:28:35;20.90;;;16.73;;
16436;SDS011;8328;52.206;21.006;2023-09-12T00:33:46;23.00;;;16.90;;
16436;SDS011;8328;52.206;21.006;2023-09-12T00:36:12;20.75;;;17.15;;
16436;SDS011;8328;52.206;21.006;2023-09-12T00:38:38;20.45;;;17.02;;
16436;SDS011;8328;52.206;21.006;2023-09-12T00:41:04;20.60;;;17.75;;
16436;SDS011;8328;52.206;21.006;2023-09-12T00:43:30;20.25;;;16.80;;
16436;SDS011;8328;52.206;21.006;2023-09-12T00:45:56;20.42;;;17.17;;
16436;SDS011;8328;52.206;21.006;2023-09-12T00:48:22;20.60;;;17.25;;
16436;SDS011;8328;52.206;21.006;2023-09-12T00:50:49;20.10;;;16.85;;
16436;SDS011;8328;52.206;21.006;2023-09-12T00:53:15;19.85;;;17.75;;
16436;SDS011;8328;52.206;21.006;2023-09-12T00:55:44;21.25;;;17.45;;
16436;SDS011;8328;52.206;21.006;2023-09-12T00:58:11;20.02;;;17.85;;
16436;SDS011;8328;52.206;21.006;2023-09-12T01:00:37;18.67;;;16.73;;
16436;SDS011;8328;52.206;21.006;2023-09-12T01:03:03;20.38;;;16.92;;
16436;SDS011;8328;52.206;21.006;2023-09-12T01:05:29;20.35;;;17.45;;
16436;SDS011;8328;52.206;21.006;2023-09-12T01:07:55;19.23;;;16.90;;
16436;SDS011;8328;52.206;21.006;2023-09-12T01:10:22;19.77;;;17.63;;
16436;SDS011;8328;52.206;21.006;2023-09-12T01:12:48;19.50;;;17.40;;
16436;SDS011;8328;52.206;21.006;2023-09-12T01:15:14;19.35;;;17.33;;
16436;SDS011;8328;52.206;21.006;2023-09-12T01:17:41;20.63;;;18.27;;
16436;SDS011;8328;52.206;21.006;2023-09-12T01:20:08;19.40;;;17.20;;
16436;SDS011;8328;52.206;21.006;2023-09-12T01:22:46;20.27;;;18.15;;
16436;SDS011;8328;52.206;21.006;2023-09-12T01:27:46;22.17;;;19.80;;
16436;SDS011;8328;52.206;21.006;2023-09-12T01:30:17;24.08;;;19.27;;
16436;SDS011;8328;52.206;21.006;2023-09-12T01:32:43;22.63;;;19.67;;
16436;SDS011;8328;52.206;21.006;2023-09-12T01:35:09;22.02;;;19.73;;
16436;SDS011;8328;52.206;21.006;2023-09-12T01:37:35;20.90;;;18.80;;
16436;SDS011;8328;52.206;21.006;2023-09-12T01:40:02;22.90;;;19.55;;
16436;SDS011;8328;52.206;21.006;2023-09-12T01:42:30;22.37;;;19.53;;
16436;SDS011;8328;52.206;21.006;2023-09-12T01:44:57;22.13;;;19.73;;
16436;SDS011;8328;52.206;21.006;2023-09-12T01:47:24;23.35;;;20.48;;
16436;SDS011;8328;52.206;21.006;2023-09-12T01:49:54;22.10;;;19.80;;
16436;SDS011;8328;52.206;21.006;2023-09-12T01:52:21;22.40;;;19.98;;
16436;SDS011;8328;52.206;21.006;2023-09-12T01:54:48;21.83;;;19.48;;
16436;SDS011;8328;52.206;21.006;2023-09-12T01:57:15;20.60;;;18.50;;
16436;SDS011;8328;52.206;21.006;2023-09-12T01:59:41;21.20;;;19.00;;
16436;SDS011;8328;52.206;21.006;2023-09-12T02:02:08;20.52;;;18.42;;
16436;SDS011;8328;52.206;21.006;2023-09-12T02:04:34;21.42;;;19.13;;
16436;SDS011;8328;52.206;21.006;2023-09-12T02:07:00;21.42;;;18.73;;
16436;SDS011;8328;52.206;21.006;2023-09-12T02:09:26;20.57;;;18.47;;
16436;SDS011;8328;52.206;21.006;2023-09-12T02:11:52;21.55;;;19.35;;
16436;SDS011;8328;52.206;21.006;2023-09-12T02:14:18;20.92;;;18.92;;
16436;SDS011;8328;52.206;21.006;2023-09-12T02:16:44;21.15;;;18.85;;
16436;SDS011;8328;52.206;21.006;2023-09-12T02:19:10;22.02;;;19.75;;
16436;SDS011;8328;52.206;21.006;2023-09-12T02:21:36;22.25;;;19.40;;
16436;SDS011;8328;52.206;21.006;2023-09-12T02:24:02;21.95;;;19.65;;
16436;SDS011;8328;52.206;21.006;2023-09-12T02:26:28;22.23;;;20.02;;
16436;SDS011;8328;52.206;21.006;2023-09-12T02:28:55;22.88;;;20.58;;
16436;SDS011;8328;52.206;21.006;2023-09-12T02:31:21;22.20;;;19.30;;
16436;SDS011;8328;52.206;21.006;2023-09-12T02:33:47;22.42;;;20.08;;
16436;SDS011;8328;52.206;21.006;2023-09-12T02:36:13;21.80;;;19.58;;
16436;SDS011;8328;52.206;21.006;2023-09-12T02:38:41;22.40;;;20.10;;
16436;SDS011;8328;52.206;21.006;2023-09-12T02:41:07;22.27;;;19.95;;
16436;SDS011;8328;52.206;21.006;2023-09-12T02:43:33;21.90;;;19.50;;
16436;SDS011;8328;52.206;21.006;2023-09-12T02:45:59;22.45;;;20.05;;
16436;SDS011;8328;52.206;21.006;2023-09-12T02:48:25;22.08;;;19.77;;
16436;SDS011;8328;52.206;21.006;2023-09-12T02:50:51;22.75;;;20.35;;
16436;SDS011;8328;52.206;21.006;2023-09-12T02:53:17;22.65;;;20.30;;
16436;SDS011;8328;52.206;21.006;2023-09-12T02:55:43;21.92;;;19.63;;
16436;SDS011;8328;52.206;21.006;2023-09-12T02:58:10;22.45;;;20.05;;
16436;SDS011;8328;52.206;21.006;2023-09-12T03:00:39;22.20;;;19.87;;
16436;SDS011;8328;52.206;21.006;2023-09-12T03:03:06;23.15;;;20.67;;
16436;SDS011;8328;52.206;21.006;2023-09-12T03:05:32;22.83;;;20.45;;
16436;SDS011;8328;52.206;21.006;2023-09-12T03:07:58;23.37;;;20.87;;
16436;SDS011;8328;52.206;21.006;2023-09-12T03:10:25;23.45;;;21.05;;
16436;SDS011;8328;52.206;21.006;2023-09-12T03:12:51;22.77;;;20.38;;
16436;SDS011;8328;52.206;21.006;2023-09-12T03:15:17;23.17;;;19.90;;
16436;SDS011;8328;52.206;21.006;2023-09-12T03:17:43;23.00;;;20.33;;
16436;SDS011;8328;52.206;21.006;2023-09-12T03:20:09;22.60;;;20.08;;
16436;SDS011;8328;52.206;21.006;2023-09-12T03:22:35;22.42;;;20.05;;
16436;SDS011;8328;52.206;21.006;2023-09-12T03:25:03;22.43;;;20.23;;
16436;SDS011;8328;52.206;21.006;2023-09-12T03:27:30;24.33;;;20.60;;
16436;SDS011;8328;52.206;21.006;2023-09-12T03:29:57;23.27;;;20.88;;
16436;SDS011;8328;52.206;21.006;2023-09-12T03:32:23;22.17;;;19.90;;
16436;SDS011;8328;52.206;21.006;2023-09-12T03:34:49;23.02;;;20.63;;
16436;SDS011;8328;52.206;21.006;2023-09-12T03:37:15;22.63;;;20.33;;
16436;SDS011;8328;52.206;21.006;2023-09-12T03:39:41;24.70;;;22.08;;
16436;SDS011;8328;52.206;21.006;2023-09-12T03:42:07;23.60;;;21.10;;
16436;SDS011;8328;52.206;21.006;2023-09-12T03:44:33;23.45;;;20.98;;
16436;SDS011;8328;52.206;21.006;2023-09-12T03:46:59;23.80;;;21.23;;
16436;SDS011;8328;52.206;21.006;2023-09-12T03:49:25;23.60;;;20.77;;
16436;SDS011;8328;52.206;21.006;2023-09-12T03:51:53;23.73;;;21.20;;
16436;SDS011;8328;52.206;21.006;2023-09-12T03:54:19;23.80;;;21.37;;
16436;SDS011;8328;52.206;21.006;2023-09-12T03:56:45;24.90;;;22.17;;
16436;SDS011;8328;52.206;21.006;2023-09-12T03:59:11;26.20;;;22.67;;
16436;SDS011;8328;52.206;21.006;2023-09-12T04:01:37;26.77;;;23.48;;
16436;SDS011;8328;52.206;21.006;2023-09-12T04:04:04;25.65;;;22.30;;
16436;SDS011;8328;52.206;21.006;2023-09-12T04:06:30;25.23;;;22.67;;
16436;SDS011;8328;52.206;21.006;2023-09-12T04:08:55;25.83;;;23.03;;
16436;SDS011;8328;52.206;21.006;2023-09-12T04:11:21;27.50;;;22.88;;
16436;SDS011;8328;52.206;21.006;2023-09-12T04:13:47;24.58;;;21.98;;
16436;SDS011;8328;52.206;21.006;2023-09-12T04:16:14;26.20;;;23.35;;
16436;SDS011;8328;52.206;21.006;2023-09-12T04:18:40;25.13;;;22.50;;
16436;SDS011;8328;52.206;21.006;2023-09-12T04:21:06;25.65;;;23.00;;
16436;SDS011;8328;52.206;21.006;2023-09-12T04:23:32;25.10;;;22.53;;
16436;SDS011;8328;52.206;21.006;2023-09-12T04:25:58;26.00;;;23.00;;
16436;SDS011;8328;52.206;21.006;2023-09-12T04:28:28;25.60;;;22.90;;
16436;SDS011;8328;52.206;21.006;2023-09-12T04:31:04;26.48;;;23.65;;
16436;SDS011;8328;52.206;21.006;2023-09-12T04:33:30;24.83;;;22.15;;
16436;SDS011;8328;52.206;21.006;2023-09-12T04:36:03;26.33;;;23.52;;
16436;SDS011;8328;52.206;21.006;2023-09-12T04:38:29;26.15;;;22.92;;
16436;SDS011;8328;52.206;21.006;2023-09-12T04:40:56;25.05;;;22.45;;
16436;SDS011;8328;52.206;21.006;2023-09-12T04:43:22;26.02;;;23.30;;
16436;SDS011;8328;52.206;21.006;2023-09-12T04:45:49;26.48;;;23.65;;
16436;SDS011;8328;52.206;21.006;2023-09-12T04:48:15;26.80;;;23.27;;
16436;SDS011;8328;52.206;21.006;2023-09-12T04:50:41;26.55;;;23.60;;
16436;SDS011;8328;52.206;21.006;2023-09-12T04:53:07;28.38;;;25.25;;
16436;SDS011;8328;52.206;21.006;2023-09-12T04:55:36;25.02;;;22.42;;
16436;SDS011;8328;52.206;21.006;2023-09-12T04:58:04;26.00;;;23.20;;
16436;SDS011;8328;52.206;21.006;2023-09-12T05:00:30;26.27;;;23.33;;
16436;SDS011;8328;52.206;21.006;2023-09-12T05:02:56;25.95;;;22.90;;
16436;SDS011;8328;52.206;21.006;2023-09-12T05:05:23;25.00;;;22.48;;
16436;SDS011;8328;52.206;21.006;2023-09-12T05:07:49;25.13;;;22.48;;
16436;SDS011;8328;52.206;21.006;2023-09-12T05:10:16;25.30;;;22.53;;
16436;SDS011;8328;52.206;21.006;2023-09-12T05:12:43;25.23;;;21.85;;
16436;SDS011;8328;52.206;21.006;2023-09-12T05:15:10;24.13;;;21.52;;
16436;SDS011;8328;52.206;21.006;2023-09-12T05:17:36;23.87;;;21.37;;
16436;SDS011;8328;52.206;21.006;2023-09-12T05:20:02;27.63;;;22.35;;
16436;SDS011;8328;52.206;21.006;2023-09-12T05:22:32;25.58;;;22.67;;
16436;SDS011;8328;52.206;21.006;2023-09-12T05:24:58;25.10;;;21.55;;
16436;SDS011;8328;52.206;21.006;2023-09-12T05:27:24;24.98;;;22.33;;
16436;SDS011;8328;52.206;21.006;2023-09-12T05:29:50;26.90;;;23.93;;
16436;SDS011;8328;52.206;21.006;2023-09-12T05:32:16;23.88;;;21.35;;
16436;SDS011;8328;52.206;21.006;2023-09-12T05:34:42;25.97;;;23.33;;
16436;SDS011;8328;52.206;21.006;2023-09-12T05:37:10;23.63;;;21.15;;
16436;SDS011;8328;52.206;21.006;2023-09-12T05:39:36;24.92;;;22.30;;
16436;SDS011;8328;52.206;21.006;2023-09-12T05:42:02;26.07;;;23.43;;
16436;SDS011;8328;52.206;21.006;2023-09-12T05:44:28;23.67;;;21.30;;
16436;SDS011;8328;52.206;21.006;2023-09-12T05:46:54;24.15;;;21.55;;
16436;SDS011;8328;52.206;21.006;2023-09-12T05:49:20;22.80;;;20.38;;
16436;SDS011;8328;52.206;21.006;2023-09-12T05:51:46;23.42;;;20.95;;
16436;SDS011;8328;52.206;21.006;2023-09-12T05:54:12;25.98;;;23.30;;
16436;SDS011;8328;52.206;21.006;2023-09-12T05:56:39;23.67;;;20.88;;
16436;SDS011;8328;52.206;21.006;2023-09-12T05:59:06;26.55;;;23.27;;
16436;SDS011;8328;52.206;21.006;2023-09-12T06:01:32;23.67;;;21.35;;
16436;SDS011;8328;52.206;21.006;2023-09-12T06:03:58;24.00;;;21.40;;
16436;SDS011;8328;52.206;21.006;2023-09-12T06:06:24;28.05;;;25.13;;
16436;SDS011;8328;52.206;21.006;2023-09-12T06:08:50;21.13;;;18.70;;
16436;SDS011;8328;52.206;21.006;2023-09-12T06:11:18;24.00;;;20.03;;
16436;SDS011;8328;52.206;21.006;2023-09-12T06:13:44;29.60;;;19.47;;
16436;SDS011;8328;52.206;21.006;2023-09-12T06:16:10;22.33;;;19.00;;
16436;SDS011;8328;52.206;21.006;2023-09-12T06:18:36;22.90;;;19.07;;
16436;SDS011;8328;52.206;21.006;2023-09-12T06:21:02;19.67;;;17.57;;
16436;SDS011;8328;52.206;21.006;2023-09-12T06:23:30;26.13;;;19.57;;
16436;SDS011;8328;52.206;21.006;2023-09-12T06:25:56;21.93;;;18.20;;
16436;SDS011;8328;52.206;21.006;2023-09-12T06:28:26;27.20;;;20.33;;
16436;SDS011;8328;52.206;21.006;2023-09-12T06:30:52;23.63;;;19.83;;
16436;SDS011;8328;52.206;21.006;2023-09-12T06:33:18;22.00;;;18.83;;
16436;SDS011;8328;52.206;21.006;2023-09-12T06:35:47;25.17;;;19.27;;
16436;SDS011;8328;52.206;21.006;2023-09-12T06:38:18;21.90;;;19.60;;
16436;SDS011;8328;52.206;21.006;2023-09-12T06:40:44;27.27;;;19.27;;
16436;SDS011;8328;52.206;21.006;2023-09-12T06:43:13;23.90;;;18.97;;
16436;SDS011;8328;52.206;21.006;2023-09-12T06:45:40;25.52;;;20.10;;
16436;SDS011;8328;52.206;21.006;2023-09-12T06:48:06;24.52;;;19.33;;
16436;SDS011;8328;52.206;21.006;2023-09-12T06:50:33;21.23;;;18.50;;
16436;SDS011;8328;52.206;21.006;2023-09-12T06:52:59;21.98;;;19.25;;
16436;SDS011;8328;52.206;21.006;2023-09-12T06:55:25;23.63;;;18.67;;
16436;SDS011;8328;52.206;21.006;2023-09-12T06:57:51;20.55;;;18.02;;
16436;SDS011;8328;52.206;21.006;2023-09-12T07:00:17;20.77;;;18.23;;
16436;SDS011;8328;52.206;21.006;2023-09-12T07:02:43;21.93;;;18.87;;
16436;SDS011;8328;52.206;21.006;2023-09-12T07:05:09;23.63;;;17.85;;
16436;SDS011;8328;52.206;21.006;2023-09-12T07:07:35;22.45;;;17.85;;
16436;SDS011;8328;52.206;21.006;2023-09-12T07:10:01;20.37;;;17.50;;
16436;SDS011;8328;52.206;21.006;2023-09-12T07:12:28;19.33;;;17.33;;
16436;SDS011;8328;52.206;21.006;2023-09-12T07:14:54;20.90;;;17.45;;
16436;SDS011;8328;52.206;21.006;2023-09-12T07:17:21;20.95;;;16.98;;
16436;SDS011;8328;52.206;21.006;2023-09-12T07:19:47;19.48;;;17.40;;
16436;SDS011;8328;52.206;21.006;2023-09-12T07:22:13;22.65;;;17.02;;
16436;SDS011;8328;52.206;21.006;2023-09-12T07:24:39;19.42;;;16.83;;
16436;SDS011;8328;52.206;21.006;2023-09-12T07:27:05;19.73;;;17.17;;
16436;SDS011;8328;52.206;21.006;2023-09-12T07:29:31;18.27;;;16.38;;
16436;SDS011;8328;52.206;21.006;2023-09-12T07:31:57;20.98;;;17.10;;
16436;SDS011;8328;52.206;21.006;2023-09-12T07:34:24;19.00;;;15.40;;
16436;SDS011;8328;52.206;21.006;2023-09-12T07:36:50;17.52;;;15.77;;
16436;SDS011;8328;52.206;21.006;2023-09-12T07:39:19;21.77;;;16.80;;
16436;SDS011;8328;52.206;21.006;2023-09-12T07:41:46;18.42;;;15.40;;
16436;SDS011;8328;52.206;21.006;2023-09-12T07:44:12;19.77;;;15.13;;
16436;SDS011;8328;52.206;21.006;2023-09-12T07:46:40;17.38;;;14.50;;
16436;SDS011;8328;52.206;21.006;2023-09-12T07:49:06;16.77;;;14.40;;
16436;SDS011;8328;52.206;21.006;2023-09-12T07:51:34;19.50;;;15.00;;
16436;SDS011;8328;52.206;21.006;2023-09-12T07:54:00;20.70;;;17.05;;
16436;SDS011;8328;52.206;21.006;2023-09-12T07:56:26;27.10;;;15.80;;
16436;SDS011;8328;52.206;21.006;2023-09-12T07:58:53;19.08;;;15.10;;
16436;SDS011;8328;52.206;21.006;2023-09-12T08:01:20;17.45;;;14.93;;
16436;SDS011;8328;52.206;21.006;2023-09-12T08:03:47;19.17;;;15.15;;
16436;SDS011;8328;52.206;21.006;2023-09-12T08:06:13;16.90;;;14.55;;
16436;SDS011;8328;52.206;21.006;2023-09-12T08:08:39;17.73;;;14.65;;
16436;SDS011;8328;52.206;21.006;2023-09-12T08:11:05;16.67;;;14.15;;
16436;SDS011;8328;52.206;21.006;2023-09-12T08:13:34;16.55;;;13.65;;
16436;SDS011;8328;52.206;21.006;2023-09-12T08:16:00;16.48;;;14.40;;
16436;SDS011;8328;52.206;21.006;2023-09-12T08:18:29;17.67;;;13.80;;
16436;SDS011;8328;52.206;21.006;2023-09-12T08:20:56;16.35;;;12.93;;
16436;SDS011;8328;52.206;21.006;2023-09-12T08:23:22;17.38;;;13.23;;
16436;SDS011;8328;52.206;21.006;2023-09-12T08:25:48;16.27;;;13.48;;
16436;SDS011;8328;52.206;21.006;2023-09-12T08:28:14;15.02;;;12.88;;
16436;SDS011;8328;52.206;21.006;2023-09-12T08:30:40;17.10;;;13.10;;
16436;SDS011;8328;52.206;21.006;2023-09-12T08:33:06;18.83;;;13.07;;
16436;SDS011;8328;52.206;21.006;2023-09-12T08:35:32;16.15;;;13.50;;
16436;SDS011;8328;52.206;21.006;2023-09-12T08:37:58;15.73;;;12.90;;
16436;SDS011;8328;52.206;21.006;2023-09-12T08:40:25;16.77;;;12.60;;
16436;SDS011;8328;52.206;21.006;2023-09-12T08:42:51;16.30;;;12.35;;
16436;SDS011;8328;52.206;21.006;2023-09-12T08:45:18;14.63;;;12.57;;
16436;SDS011;8328;52.206;21.006;2023-09-12T08:47:45;14.73;;;12.40;;
16436;SDS011;8328;52.206;21.006;2023-09-12T08:50:18;13.63;;;12.23;;
16436;SDS011;8328;52.206;21.006;2023-09-12T08:52:46;14.20;;;12.00;;
16436;SDS011;8328;52.206;21.006;2023-09-12T08:55:12;15.00;;;12.27;;
16436;SDS011;8328;52.206;21.006;2023-09-12T08:57:40;13.88;;;12.40;;
16436;SDS011;8328;52.206;21.006;2023-09-12T09:00:07;15.77;;;12.80;;
16436;SDS011;8328;52.206;21.006;2023-09-12T09:02:42;14.73;;;11.98;;
16436;SDS011;8328;52.206;21.006;2023-09-12T09:05:08;17.63;;;12.25;;
16436;SDS011;8328;52.206;21.006;2023-09-12T09:07:36;14.85;;;12.13;;
16436;SDS011;8328;52.206;21.006;2023-09-12T09:10:03;15.10;;;11.77;;
16436;SDS011;8328;52.206;21.006;2023-09-12T09:12:33;15.90;;;12.30;;
16436;SDS011;8328;52.206;21.006;2023-09-12T09:15:19;14.30;;;11.93;;
16436;SDS011;8328;52.206;21.006;2023-09-12T09:17:46;15.90;;;11.63;;
16436;SDS011;8328;52.206;21.006;2023-09-12T09:22:59;15.35;;;10.98;;
16436;SDS011;8328;52.206;21.006;2023-09-12T09:25:25;11.05;;;10.00;;
16436;SDS011;8328;52.206;21.006;2023-09-12T09:27:52;13.38;;;10.23;;
16436;SDS011;8328;52.206;21.006;2023-09-12T09:30:18;14.88;;;10.88;;
16436;SDS011;8328;52.206;21.006;2023-09-12T09:32:45;12.80;;;11.35;;
16436;SDS011;8328;52.206;21.006;2023-09-12T09:35:12;11.77;;;10.57;;
16436;SDS011;8328;52.206;21.006;2023-09-12T09:37:39;12.75;;;10.02;;
16436;SDS011;8328;52.206;21.006;2023-09-12T09:40:06;10.10;;;9.10;;
16436;SDS011;8328;52.206;21.006;2023-09-12T09:42:32;11.00;;;9.50;;
16436;SDS011;8328;52.206;21.006;2023-09-12T09:44:58;12.48;;;9.90;;
16436;SDS011;8328;52.206;21.006;2023-09-12T09:47:24;11.13;;;9.93;;
16436;SDS011;8328;52.206;21.006;2023-09-12T09:49:51;9.73;;;8.45;;
16436;SDS011;8328;52.206;21.006;2023-09-12T09:52:24;13.48;;;12.07;;
16436;SDS011;8328;52.206;21.006;2023-09-12T09:54:51;9.63;;;8.57;;
16436;SDS011;8328;52.206;21.006;2023-09-12T09:57:17;11.15;;;9.13;;
16436;SDS011;8328;52.206;21.006;2023-09-12T09:59:43;10.95;;;8.90;;
16436;SDS011;8328;52.206;21.006;2023-09-12T10:02:18;9.38;;;8.27;;
16436;SDS011;8328;52.206;21.006;2023-09-12T10:04:48;10.98;;;9.05;;
16436;SDS011;8328;52.206;21.006;2023-09-12T10:07:14;10.65;;;8.52;;
16436;SDS011;8328;52.206;21.006;2023-09-12T10:09:41;9.18;;;8.18;;
16436;SDS011;8328;52.206;21.006;2023-09-12T10:12:08;10.52;;;8.48;;
16436;SDS011;8328;52.206;21.006;2023-09-12T10:14:35;9.48;;;8.32;;
16436;SDS011;8328;52.206;21.006;2023-09-12T10:17:05;10.88;;;9.85;;
16436;SDS011;8328;52.206;21.006;2023-09-12T10:20:04;9.95;;;8.95;;
16436;SDS011;8328;52.206;21.006;2023-09-12T10:22:33;10.05;;;9.05;;
16436;SDS011;8328;52.206;21.006;2023-09-12T10:25:00;9.80;;;8.80;;
16436;SDS011;8328;52.206;21.006;2023-09-12T10:27:26;9.95;;;8.93;;
16436;SDS011;8328;52.206;21.006;2023-09-12T10:29:53;10.17;;;8.83;;
16436;SDS011;8328;52.206;21.006;2023-09-12T10:32:21;9.30;;;8.40;;
16436;SDS011;8328;52.206;21.006;2023-09-12T10:34:47;9.82;;;8.77;;
16436;SDS011;8328;52.206;21.006;2023-09-12T10:37:17;9.60;;;8.70;;
16436;SDS011;8328;52.206;21.006;2023-09-12T10:39:45;9.90;;;8.93;;
16436;SDS011;8328;52.206;21.006;2023-09-12T10:42:11;10.13;;;9.05;;
16436;SDS011;8328;52.206;21.006;2023-09-12T10:44:38;21.50;;;10.02;;
16436;SDS011;8328;52.206;21.006;2023-09-12T10:47:04;9.88;;;8.98;;
16436;SDS011;8328;52.206;21.006;2023-09-12T10:49:31;9.77;;;8.32;;
16436;SDS011;8328;52.206;21.006;2023-09-12T10:51:57;9.43;;;8.63;;
16436;SDS011;8328;52.206;21.006;2023-09-12T10:54:25;9.48;;;8.57;;
16436;SDS011;8328;52.206;21.006;2023-09-12T10:57:10;10.02;;;9.02;;
16436;SDS011;8328;52.206;21.006;2023-09-12T11:00:21;9.75;;;8.85;;
16436;SDS011;8328;52.206;21.006;2023-09-12T11:02:37;9.97;;;8.53;;
16436;SDS011;8328;52.206;21.006;2023-09-12T11:05:07;9.07;;;8.17;;
16436;SDS011;8328;52.206;21.006;2023-09-12T11:07:56;9.20;;;7.87;;
16436;SDS011;8328;52.206;21.006;2023-09-12T11:10:26;8.30;;;7.60;;
16436;SDS011;8328;52.206;21.006;2023-09-12T11:12:53;9.80;;;8.80;;
16436;SDS011;8328;52.206;21.006;2023-09-12T11:15:23;9.63;;;8.63;;
16436;SDS011;8328;52.206;21.006;2023-09-12T11:18:03;9.40;;;8.50;;
16436;SDS011;8328;52.206;21.006;2023-09-12T11:20:52;8.80;;;8.00;;
16436;SDS011;8328;52.206;21.006;2023-09-12T11:23:28;8.77;;;7.97;;
16436;SDS011;8328;52.206;21.006;2023-09-12T11:26:03;9.90;;;9.00;;
16436;SDS011;8328;52.206;21.006;2023-09-12T11:28:32;9.90;;;9.00;;
16436;SDS011;8328;52.206;21.006;2023-09-12T11:30:58;9.30;;;8.50;;
16436;SDS011;8328;52.206;21.006;2023-09-12T11:33:25;9.75;;;7.88;;
16436;SDS011;8328;52.206;21.006;2023-09-12T11:35:52;9.20;;;8.30;;
16436;SDS011;8328;52.206;21.006;2023-09-12T11:38:26;9.43;;;8.60;;
16436;SDS011;8328;52.206;21.006;2023-09-12T11:40:54;9.53;;;8.73;;
16436;SDS011;8328;52.206;21.006;2023-09-12T11:43:24;9.17;;;8.27;;
16436;SDS011;8328;52.206;21.006;2023-09-12T11:45:51;10.37;;;8.60;;
16436;SDS011;8328;52.206;21.006;2023-09-12T11:48:18;9.48;;;8.50;;
16436;SDS011;8328;52.206;21.006;2023-09-12T11:50:49;9.75;;;8.75;;
16436;SDS011;8328;52.206;21.006;2023-09-12T11:53:18;10.18;;;9.23;;
16436;SDS011;8328;52.206;21.006;2023-09-12T11:56:03;10.07;;;9.07;;
16436;SDS011;8328;52.206;21.006;2023-09-12T11:58:29;10.07;;;9.02;;
16436;SDS011;8328;52.206;21.006;2023-09-12T12:00:56;9.90;;;8.90;;
16436;SDS011;8328;52.206;21.006;2023-09-12T12:03:24;9.80;;;8.80;;
16436;SDS011;8328;52.206;21.006;2023-09-12T12:05:50;9.50;;;8.60;;
16436;SDS011;8328;52.206;21.006;2023-09-12T12:08:18;9.60;;;8.77;;
16436;SDS011;8328;52.206;21.006;2023-09-12T12:10:49;10.15;;;8.98;;
16436;SDS011;8328;52.206;21.006;2023-09-12T12:13:18;10.10;;;8.80;;
16436;SDS011;8328;52.206;21.006;2023-09-12T12:15:45;10.77;;;9.00;;
16436;SDS011;8328;52.206;21.006;2023-09-12T12:18:11;10.23;;;9.23;;
16436;SDS011;8328;52.206;21.006;2023-09-12T12:20:37;9.82;;;8.98;;
16436;SDS011;8328;52.206;21.006;2023-09-12T12:23:03;10.10;;;9.20;;
16436;SDS011;8328;52.206;21.006;2023-09-12T12:25:33;9.93;;;8.90;;
16436;SDS011;8328;52.206;21.006;2023-09-12T12:28:01;9.70;;;8.80;;
16436;SDS011;8328;52.206;21.006;2023-09-12T12:30:31;9.95;;;8.95;;
16436;SDS011;8328;52.206;21.006;2023-09-12T12:33:00;9.93;;;8.95;;
16436;SDS011;8328;52.206;21.006;2023-09-12T12:35:27;10.10;;;9.05;;
16436;SDS011;8328;52.206;21.006;2023-09-12T12:37:54;10.57;;;9.48;;
16436;SDS011;8328;52.206;21.006;2023-09-12T12:40:24;10.05;;;9.10;;
16436;SDS011;8328;52.206;21.006;2023-09-12T12:42:50;10.40;;;9.30;;
16436;SDS011;8328;52.206;21.006;2023-09-12T12:45:19;10.55;;;9.60;;
16436;SDS011;8328;52.206;21.006;2023-09-12T12:47:45;11.75;;;10.23;;
16436;SDS011;8328;52.206;21.006;2023-09-12T12:50:12;10.60;;;9.70;;
16436;SDS011;8328;52.206;21.006;2023-09-12T12:52:39;9.98;;;9.00;;
16436;SDS011;8328;52.206;21.006;2023-09-12T12:55:07;10.48;;;9.40;;
16436;SDS011;8328;52.206;21.006;2023-09-12T12:57:35;11.27;;;9.50;;
16436;SDS011;8328;52.206;21.006;2023-09-12T13:00:01;10.05;;;9.15;;
16436;SDS011;8328;52.206;21.006;2023-09-12T13:02:28;9.90;;;9.10;;
16436;SDS011;8328;52.206;21.006;2023-09-12T13:04:54;10.13;;;9.13;;
16436;SDS011;8328;52.206;21.006;2023-09-12T13:07:20;11.60;;;9.38;;
16436;SDS011;8328;52.206;21.006;2023-09-12T13:09:46;9.83;;;8.93;;
16436;SDS011;8328;52.206;21.006;2023-09-12T13:12:13;10.48;;;9.48;;
16436;SDS011;8328;52.206;21.006;2023-09-12T13:14:40;10.30;;;9.20;;
16436;SDS011;8328;52.206;21.006;2023-09-12T13:17:06;10.70;;;9.57;;
16436;SDS011;8328;52.206;21.006;2023-09-12T13:19:32;10.33;;;9.33;;
16436;SDS011;8328;52.206;21.006;2023-09-12T13:21:58;10.27;;;9.27;;
16436;SDS011;8328;52.206;21.006;2023-09-12T13:24:24;10.60;;;9.50;;
16436;SDS011;8328;52.206;21.006;2023-09-12T13:26:51;10.40;;;9.25;;
16436;SDS011;8328;52.206;21.006;2023-09-12T13:29:18;10.48;;;9.38;;
16436;SDS011;8328;52.206;21.006;2023-09-12T13:31:44;10.85;;;9.75;;
16436;SDS011;8328;52.206;21.006;2023-09-12T13:34:11;11.02;;;9.38;;
16436;SDS011;8328;52.206;21.006;2023-09-12T13:36:37;11.47;;;10.10;;
16436;SDS011;8328;52.206;21.006;2023-09-12T13:39:03;10.63;;;9.50;;
16436;SDS011;8328;52.206;21.006;2023-09-12T13:41:31;10.75;;;9.70;;
16436;SDS011;8328;52.206;21.006;2023-09-12T13:43:57;10.35;;;9.45;;
16436;SDS011;8328;52.206;21.006;2023-09-12T13:46:23;11.00;;;9.70;;
16436;SDS011;8328;52.206;21.006;2023-09-12T13:48:49;18.05;;;16.23;;
16436;SDS011;8328;52.206;21.006;2023-09-12T13:51:16;10.63;;;9.52;;
16436;SDS011;8328;52.206;21.006;2023-09-12T13:53:42;10.88;;;9.77;;
16436;SDS011;8328;52.206;21.006;2023-09-12T13:56:08;15.13;;;10.43;;
16436;SDS011;8328;52.206;21.006;2023-09-12T13:58:34;11.10;;;10.05;;
16436;SDS011;8328;52.206;21.006;2023-09-12T14:01:00;11.88;;;10.68;;
16436;SDS011;8328;52.206;21.006;2023-09-12T14:03:28;11.00;;;9.90;;
16436;SDS011;8328;52.206;21.006;2023-09-12T14:05:54;11.20;;;10.10;;
16436;SDS011;8328;52.206;21.006;2023-09-12T14:08:20;10.75;;;9.73;;
16436;SDS011;8328;52.206;21.006;2023-09-12T14:10:46;11.85;;;10.60;;
16436;SDS011;8328;52.206;21.006;2023-09-12T14:13:14;12.32;;;11.02;;
16436;SDS011;8328;52.206;21.006;2023-09-12T14:15:40;11.48;;;10.05;;
16436;SDS011;8328;52.206;21.006;2023-09-12T14:18:06;11.73;;;10.73;;
16436;SDS011;8328;52.206;21.006;2023-09-12T14:20:33;11.27;;;10.13;;
16436;SDS011;8328;52.206;21.006;2023-09-12T14:22:59;11.80;;;10.30;;
16436;SDS011;8328;52.206;21.006;2023-09-12T14:25:26;10.88;;;9.88;;
16436;SDS011;8328;52.206;21.006;2023-09-12T14:27:52;13.07;;;9.95;;
16436;SDS011;8328;52.206;21.006;2023-09-12T14:30:19;11.57;;;10.38;;
16436;SDS011;8328;52.206;21.006;2023-09-12T14:32:47;12.63;;;9.90;;
16436;SDS011;8328;52.206;21.006;2023-09-12T14:35:13;11.43;;;10.30;;